EPPO

Poznań-Ławica Airport

Poznań, Poland
TAF EPPO 221130Z 2212/2312 14007KT 1400 BR OVC003 BECMG 2212/2215 2500 BR BECMG 2215/2218 4000 BR BKN005 TEMPO 2218/2307 1300 BR BKN003 BECMG 2307/2310 7000 SCT020
Issued Valid From Valid To
Jan-22 @ 11:30 UTC
(5 hours ago)
Jan-22 @ 12:00 UTC
(5 hours ago)
Jan-23 @ 12:00 UTC
(in 19 hours)
Jan-22 @ 12:00 to Jan-23 @ 12:00
TAF EPPO 221130Z 2212/2312 14007KT 1400 BR OVC003
Wind Visibility Clouds Conditions
140° at 7 knots 1,400 meters
  • Overcast at 300' AGL
  • Mist
Expired Click to View Jan-22 @ 12:00 to Jan-22 @ 15:00
BECMG 2212/2215 2500 BR
Wind Visibility Clouds Conditions
140° at 7 knots 2,494 meters
  • Overcast at 300' AGL
  • Mist
Becoming Jan-22 @ 15:00 to Jan-23 @ 07:00
BECMG 2215/2218 4000 BR BKN005
Wind Visibility Clouds Conditions
140° at 7 knots 4,007 meters
  • Broken at 500' AGL
  • Mist
Temporary Jan-22 @ 18:00 to Jan-23 @ 07:00
TEMPO 2218/2307 1300 BR BKN003
Visibility Clouds Conditions
1,304 meters
  • Broken at 300' AGL
  • Mist
Becoming Jan-23 @ 07:00 to Jan-23 @ 12:00
BECMG 2307/2310 7000 SCT020
Wind Visibility Clouds Conditions
140° at 7 knots 7,001 meters
  • Scattered at 2,000' AGL
  • Mist
TAF EPPO 221130Z 2212/2312 14007KT 1400 BR OVC003 BECMG 2212/2215 2500 BR BECMG 2215/2218 4000 BR BKN005 TEMPO 2218/2307 1300 BR BKN003 BECMG 2307/2310 7000 SCT020
Issued Jan-22 @ 11:30 UTC
(5 hours ago)
Valid From Jan-22 @ 12:00 UTC
(5 hours ago)
Valid To Jan-23 @ 12:00 UTC
(in 19 hours)
Jan-22 @ 12:00 - Jan-23 @ 12:00
Wind Visibility
140° at 7 knots 1,400 meters
Clouds
  • Overcast at 300' AGL
Conditions
  • Mist
Jan-22 @ 12:00 - Jan-22 @ 15:00
Wind Visibility
140° at 7 knots 2,494 meters
Clouds
  • Overcast at 300' AGL
Conditions
  • Mist
Becoming Jan-22 @ 15:00 - Jan-23 @ 07:00
Wind Visibility
140° at 7 knots 4,007 meters
Clouds
  • Broken at 500' AGL
Conditions
  • Mist
Temporary Jan-22 @ 18:00 - Jan-23 @ 07:00
Clouds
  • Broken at 300' AGL
Conditions
  • Mist
Becoming Jan-23 @ 07:00 - Jan-23 @ 12:00
Wind Visibility
140° at 7 knots 7,001 meters
Clouds
  • Scattered at 2,000' AGL
Conditions
  • Mist